sensor_id;sensor_type;location;lat;lon;timestamp;temperature;humidity
46758;DHT22;32509;47.750;-3.396;2023-05-10T00:00:27;14.40;99.90
46758;DHT22;32509;47.750;-3.396;2023-05-10T00:02:52;14.40;99.90
46758;DHT22;32509;47.750;-3.396;2023-05-10T00:05:18;14.40;99.90
46758;DHT22;32509;47.750;-3.396;2023-05-10T00:07:47;14.40;99.90
46758;DHT22;32509;47.750;-3.396;2023-05-10T00:10:12;14.40;99.90
46758;DHT22;32509;47.750;-3.396;2023-05-10T00:12:38;14.40;99.90
46758;DHT22;32509;47.750;-3.396;2023-05-10T00:15:07;14.40;99.90
46758;DHT22;32509;47.750;-3.396;2023-05-10T00:17:33;14.30;99.90
46758;DHT22;32509;47.750;-3.396;2023-05-10T00:19:59;14.40;99.90
46758;DHT22;32509;47.750;-3.396;2023-05-10T00:22:25;14.40;99.90
46758;DHT22;32509;47.750;-3.396;2023-05-10T00:24:54;14.30;99.90
46758;DHT22;32509;47.750;-3.396;2023-05-10T00:27:20;14.40;99.90
46758;DHT22;32509;47.750;-3.396;2023-05-10T00:29:45;14.40;99.90
46758;DHT22;32509;47.750;-3.396;2023-05-10T00:32:11;14.40;99.90
46758;DHT22;32509;47.750;-3.396;2023-05-10T00:34:39;14.30;99.90
46758;DHT22;32509;47.750;-3.396;2023-05-10T00:37:05;14.30;99.90
46758;DHT22;32509;47.750;-3.396;2023-05-10T00:39:31;14.30;99.90
46758;DHT22;32509;47.750;-3.396;2023-05-10T00:41:57;14.30;99.90
46758;DHT22;32509;47.750;-3.396;2023-05-10T00:44:22;14.30;99.90
46758;DHT22;32509;47.750;-3.396;2023-05-10T00:46:48;14.30;99.90
46758;DHT22;32509;47.750;-3.396;2023-05-10T00:49:15;14.30;99.90
46758;DHT22;32509;47.750;-3.396;2023-05-10T00:51:41;14.30;99.90
46758;DHT22;32509;47.750;-3.396;2023-05-10T00:54:12;14.30;99.90
46758;DHT22;32509;47.750;-3.396;2023-05-10T00:56:41;14.30;99.90
46758;DHT22;32509;47.750;-3.396;2023-05-10T00:59:09;14.30;99.90
46758;DHT22;32509;47.750;-3.396;2023-05-10T01:01:35;14.30;99.90
46758;DHT22;32509;47.750;-3.396;2023-05-10T01:04:02;14.30;99.90
46758;DHT22;32509;47.750;-3.396;2023-05-10T01:06:28;14.30;99.90
46758;DHT22;32509;47.750;-3.396;2023-05-10T01:08:54;14.30;99.90
46758;DHT22;32509;47.750;-3.396;2023-05-10T01:11:24;14.30;99.90
46758;DHT22;32509;47.750;-3.396;2023-05-10T01:13:55;14.20;99.90
46758;DHT22;32509;47.750;-3.396;2023-05-10T01:16:22;14.20;99.90
46758;DHT22;32509;47.750;-3.396;2023-05-10T01:18:49;14.20;99.90
46758;DHT22;32509;47.750;-3.396;2023-05-10T01:24:14;14.20;99.90
46758;DHT22;32509;47.750;-3.396;2023-05-10T01:27:10;14.20;99.90
46758;DHT22;32509;47.750;-3.396;2023-05-10T01:32:29;14.20;99.90
46758;DHT22;32509;47.750;-3.396;2023-05-10T01:35:06;14.20;99.90
46758;DHT22;32509;47.750;-3.396;2023-05-10T01:40:47;14.20;99.90
46758;DHT22;32509;47.750;-3.396;2023-05-10T01:43:21;14.20;99.90
46758;DHT22;32509;47.750;-3.396;2023-05-10T01:46:14;14.20;99.90
46758;DHT22;32509;47.750;-3.396;2023-05-10T01:48:45;14.20;99.90
46758;DHT22;32509;47.750;-3.396;2023-05-10T01:51:19;14.20;99.90
46758;DHT22;32509;47.750;-3.396;2023-05-10T01:53:46;14.20;99.90
46758;DHT22;32509;47.750;-3.396;2023-05-10T01:56:16;14.20;99.90
46758;DHT22;32509;47.750;-3.396;2023-05-10T01:58:44;14.20;99.90
46758;DHT22;32509;47.750;-3.396;2023-05-10T02:01:14;14.20;99.90
46758;DHT22;32509;47.750;-3.396;2023-05-10T02:03:41;14.20;99.90
46758;DHT22;32509;47.750;-3.396;2023-05-10T02:06:09;14.20;99.90
46758;DHT22;32509;47.750;-3.396;2023-05-10T02:08:36;14.20;99.90
46758;DHT22;32509;47.750;-3.396;2023-05-10T02:11:03;14.20;99.90
46758;DHT22;32509;47.750;-3.396;2023-05-10T02:13:32;14.20;99.90
46758;DHT22;32509;47.750;-3.396;2023-05-10T02:16:03;14.00;99.90
46758;DHT22;32509;47.750;-3.396;2023-05-10T02:18:31;13.90;99.90
46758;DHT22;32509;47.750;-3.396;2023-05-10T02:20:58;14.00;99.90
46758;DHT22;32509;47.750;-3.396;2023-05-10T02:23:27;14.10;99.90
46758;DHT22;32509;47.750;-3.396;2023-05-10T02:25:55;14.10;99.90
46758;DHT22;32509;47.750;-3.396;2023-05-10T02:28:24;14.10;99.90
46758;DHT22;32509;47.750;-3.396;2023-05-10T02:30:54;14.10;99.90
46758;DHT22;32509;47.750;-3.396;2023-05-10T02:33:21;14.10;99.90
46758;DHT22;32509;47.750;-3.396;2023-05-10T02:35:48;14.10;99.90
46758;DHT22;32509;47.750;-3.396;2023-05-10T02:38:15;14.10;99.90
46758;DHT22;32509;47.750;-3.396;2023-05-10T02:40:42;14.10;99.90
46758;DHT22;32509;47.750;-3.396;2023-05-10T02:43:12;14.10;99.90
46758;DHT22;32509;47.750;-3.396;2023-05-10T02:45:40;14.10;99.90
46758;DHT22;32509;47.750;-3.396;2023-05-10T02:48:07;14.10;99.90
46758;DHT22;32509;47.750;-3.396;2023-05-10T02:50:34;14.10;99.90
46758;DHT22;32509;47.750;-3.396;2023-05-10T02:53:05;14.20;99.90
46758;DHT22;32509;47.750;-3.396;2023-05-10T02:55:36;14.10;99.90
46758;DHT22;32509;47.750;-3.396;2023-05-10T02:58:04;14.20;99.90
46758;DHT22;32509;47.750;-3.396;2023-05-10T03:00:32;14.20;99.90
46758;DHT22;32509;47.750;-3.396;2023-05-10T03:02:58;14.20;99.90
46758;DHT22;32509;47.750;-3.396;2023-05-10T03:05:24;14.20;99.90
46758;DHT22;32509;47.750;-3.396;2023-05-10T03:07:53;14.20;99.90
46758;DHT22;32509;47.750;-3.396;2023-05-10T03:10:27;14.20;99.90
46758;DHT22;32509;47.750;-3.396;2023-05-10T03:13:07;14.20;99.90
46758;DHT22;32509;47.750;-3.396;2023-05-10T03:15:52;14.20;99.90
46758;DHT22;32509;47.750;-3.396;2023-05-10T03:18:29;14.30;99.90
46758;DHT22;32509;47.750;-3.396;2023-05-10T03:21:03;14.20;99.90
46758;DHT22;32509;47.750;-3.396;2023-05-10T03:23:43;14.20;99.90
46758;DHT22;32509;47.750;-3.396;2023-05-10T03:27:03;14.20;99.90
46758;DHT22;32509;47.750;-3.396;2023-05-10T03:29:32;14.20;99.90
46758;DHT22;32509;47.750;-3.396;2023-05-10T03:31:59;14.20;99.90
46758;DHT22;32509;47.750;-3.396;2023-05-10T03:34:25;14.20;99.90
46758;DHT22;32509;47.750;-3.396;2023-05-10T03:36:51;14.20;99.90
46758;DHT22;32509;47.750;-3.396;2023-05-10T03:39:17;14.20;99.90
46758;DHT22;32509;47.750;-3.396;2023-05-10T03:41:43;14.20;99.90
46758;DHT22;32509;47.750;-3.396;2023-05-10T03:44:12;14.20;99.90
46758;DHT22;32509;47.750;-3.396;2023-05-10T03:46:37;14.20;99.90
46758;DHT22;32509;47.750;-3.396;2023-05-10T03:49:03;14.20;99.90
46758;DHT22;32509;47.750;-3.396;2023-05-10T03:51:29;14.20;99.90
46758;DHT22;32509;47.750;-3.396;2023-05-10T03:53:56;14.20;99.90
46758;DHT22;32509;47.750;-3.396;2023-05-10T03:56:22;14.20;99.90
46758;DHT22;32509;47.750;-3.396;2023-05-10T03:58:55;14.20;99.90
46758;DHT22;32509;47.750;-3.396;2023-05-10T04:01:24;14.20;99.90
46758;DHT22;32509;47.750;-3.396;2023-05-10T04:03:50;14.20;99.90
46758;DHT22;32509;47.750;-3.396;2023-05-10T04:06:38;14.20;99.90
46758;DHT22;32509;47.750;-3.396;2023-05-10T04:09:04;14.20;99.90
46758;DHT22;32509;47.750;-3.396;2023-05-10T04:11:30;14.00;99.90
46758;DHT22;32509;47.750;-3.396;2023-05-10T04:13:56;14.00;99.90
46758;DHT22;32509;47.750;-3.396;2023-05-10T04:16:22;14.00;99.90
46758;DHT22;32509;47.750;-3.396;2023-05-10T04:18:50;14.00;99.90
46758;DHT22;32509;47.750;-3.396;2023-05-10T04:21:16;14.00;99.90
46758;DHT22;32509;47.750;-3.396;2023-05-10T04:23:42;14.10;99.90
46758;DHT22;32509;47.750;-3.396;2023-05-10T04:26:10;14.10;99.90
46758;DHT22;32509;47.750;-3.396;2023-05-10T04:28:36;14.20;99.90
46758;DHT22;32509;47.750;-3.396;2023-05-10T04:31:06;14.20;99.90
46758;DHT22;32509;47.750;-3.396;2023-05-10T04:33:32;14.20;99.90
46758;DHT22;32509;47.750;-3.396;2023-05-10T04:35:58;14.20;99.90
46758;DHT22;32509;47.750;-3.396;2023-05-10T04:38:24;14.20;99.90
46758;DHT22;32509;47.750;-3.396;2023-05-10T04:40:50;14.20;99.90
46758;DHT22;32509;47.750;-3.396;2023-05-10T04:43:16;14.20;99.90
46758;DHT22;32509;47.750;-3.396;2023-05-10T04:45:42;14.20;99.90
46758;DHT22;32509;47.750;-3.396;2023-05-10T04:48:08;14.20;99.90
46758;DHT22;32509;47.750;-3.396;2023-05-10T04:50:34;14.20;99.90
46758;DHT22;32509;47.750;-3.396;2023-05-10T04:53:02;14.20;99.90
46758;DHT22;32509;47.750;-3.396;2023-05-10T04:55:28;14.20;99.90
46758;DHT22;32509;47.750;-3.396;2023-05-10T04:57:54;14.20;99.90
46758;DHT22;32509;47.750;-3.396;2023-05-10T05:00:23;14.20;99.90
46758;DHT22;32509;47.750;-3.396;2023-05-10T05:02:49;14.20;99.90
46758;DHT22;32509;47.750;-3.396;2023-05-10T05:05:24;14.20;99.90
46758;DHT22;32509;47.750;-3.396;2023-05-10T05:07:53;14.20;99.90
46758;DHT22;32509;47.750;-3.396;2023-05-10T05:10:18;14.30;99.90
46758;DHT22;32509;47.750;-3.396;2023-05-10T05:12:44;14.30;99.90
46758;DHT22;32509;47.750;-3.396;2023-05-10T05:18:40;14.30;99.90
46758;DHT22;32509;47.750;-3.396;2023-05-10T05:21:30;14.20;99.90
46758;DHT22;32509;47.750;-3.396;2023-05-10T05:24:25;14.20;99.90
46758;DHT22;32509;47.750;-3.396;2023-05-10T05:26:51;14.30;99.90
46758;DHT22;32509;47.750;-3.396;2023-05-10T05:29:16;14.30;99.90
46758;DHT22;32509;47.750;-3.396;2023-05-10T05:31:42;14.20;99.90
46758;DHT22;32509;47.750;-3.396;2023-05-10T05:34:18;14.30;99.90
46758;DHT22;32509;47.750;-3.396;2023-05-10T05:36:48;14.30;99.90
46758;DHT22;32509;47.750;-3.396;2023-05-10T05:39:14;14.30;99.90
46758;DHT22;32509;47.750;-3.396;2023-05-10T05:41:40;14.30;99.90
46758;DHT22;32509;47.750;-3.396;2023-05-10T05:44:05;14.30;99.90
46758;DHT22;32509;47.750;-3.396;2023-05-10T05:46:31;14.30;99.90
46758;DHT22;32509;47.750;-3.396;2023-05-10T05:48:57;14.30;99.90
46758;DHT22;32509;47.750;-3.396;2023-05-10T05:51:26;14.30;99.90
46758;DHT22;32509;47.750;-3.396;2023-05-10T05:53:55;14.30;99.90
46758;DHT22;32509;47.750;-3.396;2023-05-10T05:56:21;14.30;99.90
46758;DHT22;32509;47.750;-3.396;2023-05-10T05:59:00;14.40;99.90
46758;DHT22;32509;47.750;-3.396;2023-05-10T06:01:26;14.40;99.90
46758;DHT22;32509;47.750;-3.396;2023-05-10T06:03:51;14.40;99.90
46758;DHT22;32509;47.750;-3.396;2023-05-10T06:06:17;14.40;99.90
46758;DHT22;32509;47.750;-3.396;2023-05-10T06:08:43;14.40;99.90
46758;DHT22;32509;47.750;-3.396;2023-05-10T06:11:09;14.40;99.90
46758;DHT22;32509;47.750;-3.396;2023-05-10T06:13:35;14.40;99.90
46758;DHT22;32509;47.750;-3.396;2023-05-10T06:16:02;14.40;99.90
46758;DHT22;32509;47.750;-3.396;2023-05-10T06:18:28;14.40;99.90
46758;DHT22;32509;47.750;-3.396;2023-05-10T06:20:54;14.40;99.90
46758;DHT22;32509;47.750;-3.396;2023-05-10T06:23:20;14.40;99.90
46758;DHT22;32509;47.750;-3.396;2023-05-10T06:25:46;14.40;99.90
46758;DHT22;32509;47.750;-3.396;2023-05-10T06:28:12;14.40;99.90
46758;DHT22;32509;47.750;-3.396;2023-05-10T06:30:38;14.40;99.90
46758;DHT22;32509;47.750;-3.396;2023-05-10T06:33:03;14.40;99.90
46758;DHT22;32509;47.750;-3.396;2023-05-10T06:35:29;14.40;99.90
46758;DHT22;32509;47.750;-3.396;2023-05-10T06:37:55;14.40;99.90
46758;DHT22;32509;47.750;-3.396;2023-05-10T06:40:21;14.40;99.90
46758;DHT22;32509;47.750;-3.396;2023-05-10T06:42:47;14.40;99.90
46758;DHT22;32509;47.750;-3.396;2023-05-10T06:45:14;14.40;99.90
46758;DHT22;32509;47.750;-3.396;2023-05-10T06:47:40;14.40;99.90
46758;DHT22;32509;47.750;-3.396;2023-05-10T06:50:10;14.40;99.90
46758;DHT22;32509;47.750;-3.396;2023-05-10T06:52:37;14.50;99.90
46758;DHT22;32509;47.750;-3.396;2023-05-10T06:55:04;14.50;99.90
46758;DHT22;32509;47.750;-3.396;2023-05-10T06:57:30;14.50;99.90
46758;DHT22;32509;47.750;-3.396;2023-05-10T06:59:56;14.50;99.90
46758;DHT22;32509;47.750;-3.396;2023-05-10T07:02:22;14.50;99.90
46758;DHT22;32509;47.750;-3.396;2023-05-10T07:04:48;14.60;99.90
46758;DHT22;32509;47.750;-3.396;2023-05-10T07:07:17;14.60;99.90
46758;DHT22;32509;47.750;-3.396;2023-05-10T07:09:42;14.60;99.90
46758;DHT22;32509;47.750;-3.396;2023-05-10T07:12:08;14.70;99.90
46758;DHT22;32509;47.750;-3.396;2023-05-10T07:14:34;14.70;99.90
46758;DHT22;32509;47.750;-3.396;2023-05-10T07:17:00;14.70;99.90
46758;DHT22;32509;47.750;-3.396;2023-05-10T07:19:25;14.70;99.90
46758;DHT22;32509;47.750;-3.396;2023-05-10T07:21:51;14.70;99.90
46758;DHT22;32509;47.750;-3.396;2023-05-10T07:24:17;14.80;99.90
46758;DHT22;32509;47.750;-3.396;2023-05-10T07:26:43;14.80;99.90
46758;DHT22;32509;47.750;-3.396;2023-05-10T07:29:09;14.90;99.90
46758;DHT22;32509;47.750;-3.396;2023-05-10T07:31:35;14.80;99.90
46758;DHT22;32509;47.750;-3.396;2023-05-10T07:34:01;14.90;99.90
46758;DHT22;32509;47.750;-3.396;2023-05-10T07:36:27;14.90;99.90
46758;DHT22;32509;47.750;-3.396;2023-05-10T07:38:55;14.90;99.90
46758;DHT22;32509;47.750;-3.396;2023-05-10T07:41:42;14.90;99.90
46758;DHT22;32509;47.750;-3.396;2023-05-10T07:44:17;14.90;99.90
46758;DHT22;32509;47.750;-3.396;2023-05-10T07:46:46;14.90;99.90
46758;DHT22;32509;47.750;-3.396;2023-05-10T07:49:13;15.00;99.90
46758;DHT22;32509;47.750;-3.396;2023-05-10T07:51:39;15.00;99.90
46758;DHT22;32509;47.750;-3.396;2023-05-10T07:54:05;15.00;99.90
46758;DHT22;32509;47.750;-3.396;2023-05-10T07:56:32;14.90;99.90
46758;DHT22;32509;47.750;-3.396;2023-05-10T07:58:59;14.90;99.90
46758;DHT22;32509;47.750;-3.396;2023-05-10T08:01:29;15.00;99.90
46758;DHT22;32509;47.750;-3.396;2023-05-10T08:03:55;15.00;99.90
46758;DHT22;32509;47.750;-3.396;2023-05-10T08:06:21;15.00;99.90
46758;DHT22;32509;47.750;-3.396;2023-05-10T08:11:18;15.00;99.90
46758;DHT22;32509;47.750;-3.396;2023-05-10T08:13:48;15.10;99.90
46758;DHT22;32509;47.750;-3.396;2023-05-10T08:16:14;15.10;99.90
46758;DHT22;32509;47.750;-3.396;2023-05-10T08:18:40;15.10;99.90
46758;DHT22;32509;47.750;-3.396;2023-05-10T08:21:06;15.10;99.90
46758;DHT22;32509;47.750;-3.396;2023-05-10T08:23:32;15.10;99.90
46758;DHT22;32509;47.750;-3.396;2023-05-10T08:25:58;15.20;99.90
46758;DHT22;32509;47.750;-3.396;2023-05-10T08:28:24;15.20;99.90
46758;DHT22;32509;47.750;-3.396;2023-05-10T08:30:50;15.20;99.90
46758;DHT22;32509;47.750;-3.396;2023-05-10T08:33:17;15.20;99.90
46758;DHT22;32509;47.750;-3.396;2023-05-10T08:35:43;15.20;99.90
46758;DHT22;32509;47.750;-3.396;2023-05-10T08:38:09;15.30;99.90
46758;DHT22;32509;47.750;-3.396;2023-05-10T08:40:36;15.30;99.90
46758;DHT22;32509;47.750;-3.396;2023-05-10T08:43:05;15.30;99.90
46758;DHT22;32509;47.750;-3.396;2023-05-10T08:45:41;15.30;99.90
46758;DHT22;32509;47.750;-3.396;2023-05-10T08:48:10;15.40;99.90
46758;DHT22;32509;47.750;-3.396;2023-05-10T08:50:40;15.30;99.90
46758;DHT22;32509;47.750;-3.396;2023-05-10T08:53:10;15.40;99.90
46758;DHT22;32509;47.750;-3.396;2023-05-10T08:55:37;15.30;99.90
46758;DHT22;32509;47.750;-3.396;2023-05-10T08:58:05;15.30;99.90
46758;DHT22;32509;47.750;-3.396;2023-05-10T09:00:31;15.40;99.90
46758;DHT22;32509;47.750;-3.396;2023-05-10T09:02:58;15.30;99.90
46758;DHT22;32509;47.750;-3.396;2023-05-10T09:05:24;15.40;99.90
46758;DHT22;32509;47.750;-3.396;2023-05-10T09:07:50;15.50;99.90
46758;DHT22;32509;47.750;-3.396;2023-05-10T09:10:16;15.40;99.90
46758;DHT22;32509;47.750;-3.396;2023-05-10T09:12:43;15.50;99.90
46758;DHT22;32509;47.750;-3.396;2023-05-10T09:15:11;15.50;99.90
46758;DHT22;32509;47.750;-3.396;2023-05-10T09:17:40;15.50;99.90
46758;DHT22;32509;47.750;-3.396;2023-05-10T09:20:06;15.50;99.90
46758;DHT22;32509;47.750;-3.396;2023-05-10T09:22:35;15.50;99.90
46758;DHT22;32509;47.750;-3.396;2023-05-10T09:25:09;15.60;99.90
46758;DHT22;32509;47.750;-3.396;2023-05-10T09:27:36;15.60;99.90
46758;DHT22;32509;47.750;-3.396;2023-05-10T09:30:06;15.70;99.90
46758;DHT22;32509;47.750;-3.396;2023-05-10T09:32:45;15.70;99.90
46758;DHT22;32509;47.750;-3.396;2023-05-10T09:35:13;15.70;99.90
46758;DHT22;32509;47.750;-3.396;2023-05-10T09:37:40;15.70;99.90
46758;DHT22;32509;47.750;-3.396;2023-05-10T09:40:08;15.70;99.90
46758;DHT22;32509;47.750;-3.396;2023-05-10T09:42:36;15.80;99.90
46758;DHT22;32509;47.750;-3.396;2023-05-10T09:45:03;15.70;99.90
46758;DHT22;32509;47.750;-3.396;2023-05-10T09:47:31;15.70;99.90
46758;DHT22;32509;47.750;-3.396;2023-05-10T09:49:57;15.70;99.90
46758;DHT22;32509;47.750;-3.396;2023-05-10T09:52:29;15.70;99.90
46758;DHT22;32509;47.750;-3.396;2023-05-10T09:54:55;15.80;99.90
46758;DHT22;32509;47.750;-3.396;2023-05-10T09:57:21;15.80;99.90
46758;DHT22;32509;47.750;-3.396;2023-05-10T09:59:48;15.80;99.90
46758;DHT22;32509;47.750;-3.396;2023-05-10T10:02:14;15.80;99.90
46758;DHT22;32509;47.750;-3.396;2023-05-10T10:04:41;15.80;99.90
46758;DHT22;32509;47.750;-3.396;2023-05-10T10:07:07;15.80;99.90
46758;DHT22;32509;47.750;-3.396;2023-05-10T10:09:34;15.90;99.90
46758;DHT22;32509;47.750;-3.396;2023-05-10T10:12:01;15.90;99.90
46758;DHT22;32509;47.750;-3.396;2023-05-10T10:14:28;15.90;99.90
46758;DHT22;32509;47.750;-3.396;2023-05-10T10:16:54;15.90;99.90
46758;DHT22;32509;47.750;-3.396;2023-05-10T10:19:20;15.90;99.90
46758;DHT22;32509;47.750;-3.396;2023-05-10T10:21:49;15.90;99.90
46758;DHT22;32509;47.750;-3.396;2023-05-10T10:24:15;15.80;99.90
46758;DHT22;32509;47.750;-3.396;2023-05-10T10:26:42;15.80;99.90
46758;DHT22;32509;47.750;-3.396;2023-05-10T10:29:36;15.80;99.90
46758;DHT22;32509;47.750;-3.396;2023-05-10T10:32:38;15.80;99.90
46758;DHT22;32509;47.750;-3.396;2023-05-10T10:35:08;15.80;99.90
46758;DHT22;32509;47.750;-3.396;2023-05-10T10:37:47;15.80;99.90
46758;DHT22;32509;47.750;-3.396;2023-05-10T10:40:28;15.80;99.90
46758;DHT22;32509;47.750;-3.396;2023-05-10T10:42:55;15.80;99.90
46758;DHT22;32509;47.750;-3.396;2023-05-10T10:45:22;15.90;99.90
46758;DHT22;32509;47.750;-3.396;2023-05-10T10:47:53;15.90;99.90
46758;DHT22;32509;47.750;-3.396;2023-05-10T10:50:19;16.00;99.90
46758;DHT22;32509;47.750;-3.396;2023-05-10T10:52:45;15.90;99.90
46758;DHT22;32509;47.750;-3.396;2023-05-10T10:55:19;16.00;99.90
46758;DHT22;32509;47.750;-3.396;2023-05-10T10:57:53;16.00;99.90
46758;DHT22;32509;47.750;-3.396;2023-05-10T11:00:38;16.00;99.90
46758;DHT22;32509;47.750;-3.396;2023-05-10T11:03:11;16.10;99.90
46758;DHT22;32509;47.750;-3.396;2023-05-10T11:13:39;16.00;99.90
46758;DHT22;32509;47.750;-3.396;2023-05-10T11:18:51;16.00;99.90
46758;DHT22;32509;47.750;-3.396;2023-05-10T11:21:19;16.00;99.90
46758;DHT22;32509;47.750;-3.396;2023-05-10T11:23:55;16.00;99.90
46758;DHT22;32509;47.750;-3.396;2023-05-10T11:26:30;15.90;99.90
46758;DHT22;32509;47.750;-3.396;2023-05-10T11:28:58;16.00;99.90
46758;DHT22;32509;47.750;-3.396;2023-05-10T11:31:27;16.00;99.90
46758;DHT22;32509;47.750;-3.396;2023-05-10T11:33:58;16.10;99.90
